Time;durP1;ratioP1;P1;durP2;ratioP2;P2;SDS_P1;SDS_P2;PMS_P1;PMS_P2;Temp;Humidity;BMP_temperature;BMP_pressure;BME280_temperature;BME280_humidity;BME280_pressure;Samples;Min_cycle;Max_cycle;Signal;HPM_P1;HPM_P2
2021/08/10 00:00:46;;;;;;;3.30;2.23;;;14.40;99.90;;;;;;5048046;28;20545;-76
2021/08/10 00:03:13;;;;;;;2.83;2.63;;;14.30;99.90;;;;;;5049076;28;20963;-76
2021/08/10 00:05:40;;;;;;;2.67;2.47;;;14.30;99.90;;;;;;5049573;28;20488;-76
2021/08/10 00:08:07;;;;;;;3.57;2.33;;;14.20;99.90;;;;;;5048969;28;20463;-77
2021/08/10 00:10:35;;;;;;;2.57;2.37;;;14.20;99.90;;;;;;5108223;22;21015;-72
2021/08/10 00:13:01;;;;;;;3.50;2.70;;;14.10;99.90;;;;;;5028920;28;20460;-70
2021/08/10 00:15:28;;;;;;;2.97;2.70;;;14.10;99.90;;;;;;5028747;28;21030;-70
2021/08/10 00:17:55;;;;;;;4.30;3.03;;;14.10;99.90;;;;;;5027475;28;20457;-69
2021/08/10 00:20:21;;;;;;;2.80;2.60;;;14.10;99.90;;;;;;5028879;28;20471;-70
2021/08/10 00:22:51;;;;;;;8.00;3.30;;;14.10;99.90;;;;;;5028997;28;20990;-71
2021/08/10 00:25:18;;;;;;;3.80;2.80;;;14.10;99.90;;;;;;5028873;28;20484;-71
2021/08/10 00:27:46;;;;;;;2.60;2.40;;;14.10;99.90;;;;;;5028845;28;20464;-71
2021/08/10 00:30:13;;;;;;;2.93;2.70;;;14.10;99.90;;;;;;5028653;28;20971;-71
2021/08/10 00:32:40;;;;;;;3.10;2.80;;;14.10;99.90;;;;;;5028936;28;20457;-71
2021/08/10 00:35:07;;;;;;;2.80;2.50;;;14.10;99.90;;;;;;5028669;28;20471;-71
2021/08/10 00:37:34;;;;;;;4.17;2.63;;;14.10;99.90;;;;;;5028774;28;20468;-71
2021/08/10 00:40:01;;;;;;;4.20;2.80;;;14.20;99.90;;;;;;5028634;28;20484;-71
2021/08/10 00:42:28;;;;;;;2.80;2.60;;;14.10;99.90;;;;;;5028663;28;20459;-71
2021/08/10 00:44:56;;;;;;;2.50;2.30;;;14.10;99.90;;;;;;5028987;28;20468;-71
2021/08/10 00:47:22;;;;;;;3.20;2.40;;;14.10;99.90;;;;;;5028034;28;20964;-71
2021/08/10 00:49:49;;;;;;;3.20;2.40;;;14.10;99.90;;;;;;5029155;28;20468;-71
2021/08/10 00:52:17;;;;;;;3.00;2.40;;;14.00;99.90;;;;;;5028557;28;20468;-71
2021/08/10 00:54:43;;;;;;;2.90;2.70;;;14.00;99.90;;;;;;5028839;28;20498;-71
2021/08/10 00:57:10;;;;;;;2.47;2.27;;;14.00;99.90;;;;;;5028551;28;20476;-71
2021/08/10 00:59:37;;;;;;;3.70;2.73;;;13.90;99.90;;;;;;5028409;28;20491;-71
2021/08/10 01:02:06;;;;;;;2.80;2.23;;;13.90;99.90;;;;;;5028808;28;20468;-71
2021/08/10 01:04:34;;;;;;;3.97;2.70;;;13.90;99.90;;;;;;5028711;28;20470;-71
2021/08/10 01:07:10;;;;;;;4.53;2.47;;;13.90;99.90;;;;;;5028452;28;20489;-71
2021/08/10 01:09:43;;;;;;;3.67;2.70;;;13.90;99.90;;;;;;5028772;28;20460;-71
2021/08/10 01:12:13;;;;;;;3.00;2.63;;;13.80;99.90;;;;;;5031311;28;20472;-71
2021/08/10 01:14:46;;;;;;;3.30;2.47;;;13.80;99.90;;;;;;5032630;28;20471;-71
2021/08/10 01:17:21;;;;;;;3.23;2.93;;;13.70;99.90;;;;;;5031747;28;20491;-71
2021/08/10 01:20:25;;;;;;;3.03;2.73;;;13.70;99.90;;;;;;5032645;28;20576;-71
2021/08/10 01:22:54;;;;;;;3.20;2.73;;;13.70;99.90;;;;;;5032821;28;20460;-71
2021/08/10 01:25:42;;;;;;;3.70;2.70;;;13.70;99.90;;;;;;5032151;28;20487;-71
2021/08/10 01:28:32;;;;;;;2.57;2.33;;;13.70;99.90;;;;;;5031739;28;20463;-71
2021/08/10 01:31:26;;;;;;;3.00;2.70;;;13.60;99.90;;;;;;5032528;28;20464;-71
2021/08/10 01:34:00;;;;;;;5.77;2.37;;;13.60;99.90;;;;;;5027305;28;20956;-71
2021/08/10 01:36:27;;;;;;;5.90;3.00;;;13.60;99.90;;;;;;5032156;28;20505;-71
2021/08/10 01:39:00;;;;;;;3.20;2.90;;;13.50;99.90;;;;;;5031427;28;20488;-71
2021/08/10 01:41:28;;;;;;;4.37;2.90;;;13.50;99.90;;;;;;5032257;28;20464;-71
2021/08/10 01:43:55;;;;;;;4.57;2.63;;;13.50;99.90;;;;;;5032069;28;20468;-71
2021/08/10 01:46:25;;;;;;;5.17;2.77;;;13.40;99.90;;;;;;5031849;28;20484;-71
2021/08/10 01:48:54;;;;;;;4.40;2.20;;;13.40;99.90;;;;;;5031712;28;20452;-71
2021/08/10 01:51:23;;;;;;;3.70;3.40;;;13.40;99.90;;;;;;5031665;28;20507;-71
2021/08/10 01:53:51;;;;;;;2.90;2.43;;;13.30;99.90;;;;;;5032080;28;20464;-71
2021/08/10 01:56:19;;;;;;;2.60;2.40;;;13.30;99.90;;;;;;5031378;28;20480;-71
2021/08/10 01:58:47;;;;;;;3.80;2.70;;;13.30;99.90;;;;;;5031480;28;20569;-71
2021/08/10 02:01:14;;;;;;;2.77;2.40;;;13.30;99.90;;;;;;5031672;28;20948;-71
2021/08/10 02:03:42;;;;;;;3.07;2.77;;;13.30;99.90;;;;;;5031725;28;20575;-71
2021/08/10 02:06:12;;;;;;;5.40;2.80;;;13.30;99.90;;;;;;5031637;28;20484;-71
2021/08/10 02:08:40;;;;;;;3.03;2.80;;;13.20;99.90;;;;;;5031074;28;20456;-71
2021/08/10 02:11:08;;;;;;;3.13;2.83;;;13.20;99.90;;;;;;5031450;28;20476;-71
2021/08/10 02:13:35;;;;;;;4.03;3.00;;;13.20;99.90;;;;;;5031618;28;20487;-71
2021/08/10 02:16:02;;;;;;;2.83;2.60;;;13.20;99.90;;;;;;5031022;28;20476;-71
2021/08/10 02:18:29;;;;;;;5.17;2.97;;;13.20;99.90;;;;;;5031134;28;20467;-71
2021/08/10 02:20:58;;;;;;;3.30;2.97;;;13.20;99.90;;;;;;5031588;28;20456;-71
2021/08/10 02:23:27;;;;;;;4.03;2.93;;;13.20;99.90;;;;;;5029780;28;20456;-71
2021/08/10 02:25:55;;;;;;;3.43;2.83;;;13.20;99.90;;;;;;5031445;28;20484;-71
2021/08/10 02:28:22;;;;;;;4.60;3.13;;;13.20;99.90;;;;;;5030259;28;20469;-71
2021/08/10 02:30:53;;;;;;;4.40;2.90;;;13.20;99.90;;;;;;5031513;28;20471;-71
2021/08/10 02:33:21;;;;;;;4.00;2.90;;;13.10;99.90;;;;;;5030688;28;20567;-71
2021/08/10 02:35:50;;;;;;;2.90;2.70;;;13.10;99.90;;;;;;5031368;28;20480;-71
2021/08/10 02:38:20;;;;;;;3.77;3.13;;;13.10;99.90;;;;;;5030088;28;20475;-71
2021/08/10 02:40:50;;;;;;;3.10;2.80;;;13.00;99.90;;;;;;5031100;28;20483;-71
2021/08/10 02:43:18;;;;;;;3.33;3.03;;;13.00;99.90;;;;;;5030812;28;20460;-71
2021/08/10 02:45:45;;;;;;;3.50;3.07;;;13.00;99.90;;;;;;5030838;28;20512;-71
2021/08/10 02:48:12;;;;;;;3.90;2.97;;;13.00;99.90;;;;;;5030322;28;20471;-71
2021/08/10 02:50:39;;;;;;;5.13;3.30;;;13.00;99.90;;;;;;5031050;28;20479;-71
2021/08/10 02:53:06;;;;;;;3.50;2.73;;;13.00;99.90;;;;;;5030636;28;20464;-71
2021/08/10 02:55:35;;;;;;;4.17;3.73;;;13.00;99.90;;;;;;5030655;28;20476;-71
2021/08/10 02:58:09;;;;;;;4.33;3.17;;;12.90;99.90;;;;;;5030120;28;20464;-71
2021/08/10 03:00:38;;;;;;;4.40;3.13;;;12.90;99.90;;;;;;5030893;28;20499;-71
2021/08/10 03:03:10;;;;;;;4.73;3.37;;;12.90;99.90;;;;;;5030596;28;20460;-71
2021/08/10 03:05:40;;;;;;;4.23;2.40;;;12.90;99.90;;;;;;5030602;28;20491;-71
2021/08/10 03:08:08;;;;;;;3.20;2.90;;;12.90;99.90;;;;;;5030005;28;20847;-71
2021/08/10 03:10:38;;;;;;;3.30;2.90;;;12.90;99.90;;;;;;5030383;28;20464;-71
2021/08/10 03:13:09;;;;;;;3.63;3.27;;;12.90;99.90;;;;;;5030476;28;20467;-70
2021/08/10 03:15:39;;;;;;;3.43;3.13;;;12.90;99.90;;;;;;5029966;28;20491;-71
2021/08/10 03:18:10;;;;;;;2.70;2.27;;;12.90;99.90;;;;;;5029858;28;20490;-70
2021/08/10 03:20:41;;;;;;;3.83;3.20;;;12.90;99.90;;;;;;5030495;28;20992;-71
2021/08/10 03:23:09;;;;;;;3.77;3.13;;;12.90;99.90;;;;;;5030013;28;20464;-71
2021/08/10 03:25:36;;;;;;;3.30;2.83;;;12.90;99.90;;;;;;5030344;28;21312;-71
2021/08/10 03:28:04;;;;;;;4.80;3.10;;;12.90;99.90;;;;;;5029502;28;20464;-71
2021/08/10 03:30:32;;;;;;;5.60;3.57;;;12.90;99.90;;;;;;5030076;28;20464;-71
2021/08/10 03:33:00;;;;;;;4.30;3.50;;;12.90;99.90;;;;;;5030146;28;20463;-71
2021/08/10 03:35:28;;;;;;;3.03;2.60;;;12.90;99.90;;;;;;5029218;28;20515;-71
2021/08/10 03:37:55;;;;;;;3.47;2.90;;;12.80;99.90;;;;;;5029642;28;20554;-71
2021/08/10 03:40:23;;;;;;;5.80;3.33;;;12.80;99.90;;;;;;5029550;28;20499;-70
2021/08/10 03:42:51;;;;;;;5.50;3.03;;;12.80;99.90;;;;;;5030987;28;20468;-70
2021/08/10 03:45:19;;;;;;;4.40;3.03;;;12.80;99.90;;;;;;5030115;28;20480;-70
2021/08/10 03:47:48;;;;;;;3.13;2.70;;;12.70;99.90;;;;;;5029322;28;21019;-70
2021/08/10 03:50:15;;;;;;;4.03;3.17;;;12.70;99.90;;;;;;5028909;28;20475;-70
2021/08/10 03:52:42;;;;;;;2.57;2.33;;;12.70;99.90;;;;;;5029512;28;20471;-70
2021/08/10 03:55:10;;;;;;;3.13;2.70;;;12.70;99.90;;;;;;5029215;28;20456;-70
2021/08/10 03:57:39;;;;;;;3.87;2.67;;;12.70;99.90;;;;;;5029277;28;20488;-70
2021/08/10 04:00:07;;;;;;;3.90;3.30;;;12.70;99.90;;;;;;5038177;28;20490;-70
2021/08/10 04:02:35;;;;;;;2.90;2.70;;;12.60;99.90;;;;;;5049362;28;20951;-70
2021/08/10 04:05:03;;;;;;;3.00;2.77;;;12.60;99.90;;;;;;5049173;28;20463;-70
2021/08/10 04:07:31;;;;;;;3.40;2.80;;;12.60;99.90;;;;;;5048605;28;20838;-70
2021/08/10 04:09:59;;;;;;;4.07;3.07;;;12.70;99.90;;;;;;5049164;28;21038;-70
2021/08/10 04:12:26;;;;;;;5.53;3.50;;;12.70;99.90;;;;;;5048846;28;20467;-70
2021/08/10 04:14:53;;;;;;;3.50;3.20;;;12.70;99.90;;;;;;5049303;28;20471;-70
2021/08/10 04:17:19;;;;;;;5.00;3.00;;;12.80;99.90;;;;;;5048152;28;20455;-70
2021/08/10 04:19:48;;;;;;;4.23;3.43;;;12.80;99.90;;;;;;5049130;28;20479;-70
2021/08/10 04:22:17;;;;;;;3.47;3.17;;;12.90;99.90;;;;;;5048674;28;20459;-70
2021/08/10 04:24:44;;;;;;;2.87;2.57;;;12.90;99.90;;;;;;5048853;28;20551;-70
2021/08/10 04:27:12;;;;;;;4.13;2.80;;;12.90;99.90;;;;;;5048454;28;20575;-70
2021/08/10 04:29:39;;;;;;;3.23;2.93;;;13.00;99.90;;;;;;5048957;28;20551;-70
2021/08/10 04:32:06;;;;;;;4.30;3.40;;;13.00;99.90;;;;;;5048570;28;20601;-70
2021/08/10 04:34:34;;;;;;;3.23;2.93;;;13.00;99.90;;;;;;5048799;28;20468;-70
2021/08/10 04:37:00;;;;;;;3.70;2.83;;;13.10;99.90;;;;;;5048632;28;20545;-70
2021/08/10 04:39:29;;;;;;;5.00;2.90;;;13.10;99.90;;;;;;5047709;28;20482;-70
2021/08/10 04:41:55;;;;;;;3.50;2.80;;;13.10;99.90;;;;;;5048748;28;21054;-70
2021/08/10 04:44:22;;;;;;;2.90;2.43;;;13.10;99.90;;;;;;5048184;28;20467;-70
2021/08/10 04:46:50;;;;;;;2.70;2.50;;;13.10;99.90;;;;;;5047888;28;20994;-70
2021/08/10 04:49:17;;;;;;;3.30;2.87;;;13.20;99.90;;;;;;5047659;28;20834;-70
2021/08/10 04:51:43;;;;;;;3.17;2.87;;;13.20;99.90;;;;;;5048690;28;20966;-70
2021/08/10 04:54:11;;;;;;;3.37;3.07;;;13.30;99.90;;;;;;5048263;28;20460;-70
2021/08/10 04:56:39;;;;;;;6.23;3.30;;;13.30;99.90;;;;;;5048398;28;20490;-70
2021/08/10 04:59:06;;;;;;;3.70;3.37;;;13.40;99.90;;;;;;5048009;28;20459;-70
2021/08/10 05:01:32;;;;;;;3.03;2.63;;;13.40;99.90;;;;;;5048397;28;20502;-70
2021/08/10 05:03:59;;;;;;;4.43;2.80;;;13.40;99.90;;;;;;5048265;28;20970;-70
2021/08/10 05:06:26;;;;;;;3.70;3.40;;;13.50;99.90;;;;;;5048182;28;20494;-70
2021/08/10 05:08:52;;;;;;;3.67;3.10;;;13.50;99.90;;;;;;5047647;28;20486;-70
2021/08/10 05:11:20;;;;;;;5.07;3.10;;;13.60;99.90;;;;;;5048060;28;20463;-70
2021/08/10 05:13:48;;;;;;;3.40;3.10;;;13.60;99.90;;;;;;5048360;28;20595;-70
2021/08/10 05:16:15;;;;;;;3.67;3.10;;;13.60;99.90;;;;;;5047790;28;20490;-70
2021/08/10 05:18:42;;;;;;;3.87;3.47;;;13.60;99.90;;;;;;5048059;28;20468;-70
2021/08/10 05:21:08;;;;;;;4.00;3.37;;;13.70;99.90;;;;;;5047882;28;20488;-70
2021/08/10 05:23:35;;;;;;;6.40;3.23;;;13.70;99.90;;;;;;5048073;28;20464;-70
2021/08/10 05:26:02;;;;;;;3.85;3.45;;;13.80;99.90;;;;;;5047456;28;20467;-69
2021/08/10 05:28:29;;;;;;;3.83;3.10;;;13.80;99.90;;;;;;5047518;28;20208;-69
2021/08/10 05:30:57;;;;;;;3.80;2.90;;;13.90;99.90;;;;;;5048066;28;20455;-69
2021/08/10 05:33:23;;;;;;;3.40;2.77;;;13.90;99.90;;;;;;5047810;28;20466;-69
2021/08/10 05:35:50;;;;;;;5.10;3.00;;;14.00;99.90;;;;;;5048140;28;20478;-69
2021/08/10 05:38:17;;;;;;;4.70;2.90;;;14.00;99.90;;;;;;5047034;28;20470;-69
2021/08/10 05:40:43;;;;;;;3.17;2.87;;;14.10;99.90;;;;;;5048145;28;20483;-69
2021/08/10 05:43:10;;;;;;;4.23;2.53;;;14.10;99.90;;;;;;5047874;28;20493;-69
2021/08/10 05:45:37;;;;;;;3.10;2.90;;;14.20;99.90;;;;;;5047844;28;20480;-69
2021/08/10 05:48:06;;;;;;;4.43;2.67;;;14.30;99.90;;;;;;5039425;28;20472;-70
2021/08/10 05:50:32;;;;;;;3.30;3.00;;;14.40;99.90;;;;;;5027751;28;20476;-70
2021/08/10 05:52:59;;;;;;;4.13;2.80;;;14.50;99.90;;;;;;5028054;28;20954;-69
2021/08/10 05:55:27;;;;;;;3.10;2.80;;;14.50;99.90;;;;;;5027353;28;20487;-69
2021/08/10 05:57:54;;;;;;;4.27;3.87;;;14.60;99.90;;;;;;5029327;28;20586;-70
2021/08/10 06:00:21;;;;;;;3.10;2.73;;;14.60;99.90;;;;;;5030660;28;20480;-69
2021/08/10 06:02:48;;;;;;;5.03;2.70;;;14.70;99.90;;;;;;5031031;28;20456;-69
2021/08/10 06:05:16;;;;;;;2.87;2.60;;;14.80;99.90;;;;;;5030381;28;20472;-69
2021/08/10 06:07:42;;;;;;;5.20;3.00;;;14.80;99.90;;;;;;5031001;28;20464;-69
2021/08/10 06:10:10;;;;;;;5.53;3.03;;;14.90;99.90;;;;;;5030932;28;20495;-69
2021/08/10 06:12:36;;;;;;;5.20;2.87;;;14.90;99.90;;;;;;5030497;28;20467;-69
2021/08/10 06:15:03;;;;;;;3.00;2.70;;;15.00;99.90;;;;;;5029276;28;20468;-69
2021/08/10 06:17:30;;;;;;;5.00;2.97;;;15.10;99.90;;;;;;5026259;28;20467;-69
2021/08/10 06:19:57;;;;;;;4.27;2.70;;;15.10;99.90;;;;;;5029421;28;20483;-69
2021/08/10 06:22:25;;;;;;;3.53;3.10;;;15.20;99.90;;;;;;5028941;28;20457;-69
2021/08/10 06:24:52;;;;;;;2.40;2.17;;;15.20;99.90;;;;;;5029662;28;20800;-69
2021/08/10 06:27:20;;;;;;;3.70;2.80;;;15.30;99.90;;;;;;5029053;28;20998;-69
2021/08/10 06:29:47;;;;;;;4.80;2.50;;;15.30;99.90;;;;;;5029576;28;20468;-69
2021/08/10 06:32:14;;;;;;;4.37;2.70;;;15.40;99.90;;;;;;5029090;28;20471;-69
2021/08/10 06:34:41;;;;;;;2.90;2.70;;;15.50;99.90;;;;;;5027687;28;20825;-69
2021/08/10 06:37:07;;;;;;;3.70;2.93;;;15.50;99.90;;;;;;5066808;22;1042507;-67
2021/08/10 06:39:35;;;;;;;3.30;2.80;;;15.60;99.90;;;;;;5049808;28;20957;-67
2021/08/10 06:42:02;;;;;;;3.07;2.70;;;15.70;99.90;;;;;;5050277;28;20483;-67
2021/08/10 06:44:29;;;;;;;4.00;2.70;;;15.70;99.90;;;;;;5050516;28;20474;-67
2021/08/10 06:46:55;;;;;;;3.40;2.53;;;15.80;99.90;;;;;;5050531;28;20479;-67
2021/08/10 06:49:22;;;;;;;3.00;2.70;;;15.90;99.90;;;;;;5050035;28;20550;-67
2021/08/10 06:51:49;;;;;;;4.70;3.10;;;16.00;99.90;;;;;;5050631;28;20451;-67
2021/08/10 06:54:16;;;;;;;3.43;2.90;;;16.10;99.90;;;;;;5050043;28;20455;-67
2021/08/10 06:56:44;;;;;;;3.43;2.90;;;16.10;99.90;;;;;;5050545;28;20493;-67
2021/08/10 06:59:10;;;;;;;2.90;2.53;;;16.30;99.90;;;;;;5049824;28;20456;-67
2021/08/10 07:01:37;;;;;;;9.17;3.10;;;16.30;99.90;;;;;;5050540;28;20487;-67
2021/08/10 07:04:04;;;;;;;4.07;2.57;;;16.50;99.90;;;;;;5050262;28;20459;-67
2021/08/10 07:06:31;;;;;;;2.73;2.40;;;16.60;99.90;;;;;;5050110;28;20483;-67
2021/08/10 07:09:04;;;;;;;5.63;2.90;;;16.70;99.90;;;;;;5048982;28;20455;-67
2021/08/10 07:11:31;;;;;;;3.40;2.60;;;16.80;99.90;;;;;;5050224;28;20455;-67
2021/08/10 07:13:59;;;;;;;2.93;2.63;;;16.90;99.90;;;;;;5050383;28;20467;-67
2021/08/10 07:16:25;;;;;;;2.93;2.37;;;17.00;99.90;;;;;;5049674;28;20494;-67
2021/08/10 07:18:52;;;;;;;3.27;2.67;;;17.20;99.90;;;;;;5049587;28;20466;-67
2021/08/10 07:21:19;;;;;;;4.27;2.77;;;17.30;99.90;;;;;;5049816;28;20851;-67
2021/08/10 07:23:45;;;;;;;3.07;2.80;;;17.30;99.90;;;;;;5050122;28;20463;-67
2021/08/10 07:26:13;;;;;;;4.17;3.10;;;17.40;99.90;;;;;;5049787;28;20490;-67
2021/08/10 07:28:40;;;;;;;6.03;3.07;;;17.50;99.90;;;;;;5049675;28;20530;-67
2021/08/10 07:31:08;;;;;;;3.77;2.90;;;17.60;99.90;;;;;;5049733;28;20463;-67
2021/08/10 07:33:34;;;;;;;3.27;2.63;;;17.70;99.90;;;;;;5049814;28;20456;-67
2021/08/10 07:36:02;;;;;;;3.00;2.63;;;17.80;99.90;;;;;;5049493;28;20488;-66
2021/08/10 07:38:29;;;;;;;4.57;3.10;;;17.90;99.90;;;;;;5034713;28;20726;-67
2021/08/10 07:40:55;;;;;;;5.90;2.47;;;18.00;99.90;;;;;;5036845;28;20495;-67
2021/08/10 07:43:22;;;;;;;4.23;2.73;;;18.00;99.90;;;;;;5038559;28;20467;-67
2021/08/10 07:45:50;;;;;;;4.00;2.90;;;18.10;99.90;;;;;;5045161;28;20488;-67
2021/08/10 07:48:18;;;;;;;5.73;2.60;;;18.10;99.90;;;;;;5034516;28;20965;-67
2021/08/10 07:50:47;;;;;;;3.60;2.60;;;18.10;99.90;;;;;;5036643;28;20461;-67
2021/08/10 07:53:14;;;;;;;2.90;2.60;;;18.20;99.90;;;;;;5034270;28;20889;-67
2021/08/10 07:55:41;;;;;;;4.00;2.90;;;18.20;99.90;;;;;;5034605;28;20498;-67
2021/08/10 07:58:08;;;;;;;3.70;3.20;;;18.40;99.90;;;;;;5045557;28;20555;-67
2021/08/10 08:00:35;;;;;;;3.17;2.80;;;18.50;99.90;;;;;;5048208;28;20556;-67
2021/08/10 08:03:01;;;;;;;5.03;2.67;;;18.60;99.90;;;;;;5047975;28;20472;-67
2021/08/10 08:05:30;;;;;;;3.30;3.00;;;18.70;99.90;;;;;;5040102;28;20495;-67
2021/08/10 08:07:57;;;;;;;3.50;3.10;;;18.70;99.90;;;;;;5030578;28;20468;-67
2021/08/10 08:10:23;;;;;;;4.07;3.07;;;18.80;99.90;;;;;;5047892;28;20844;-67
2021/08/10 08:12:50;;;;;;;3.53;2.30;;;18.80;99.90;;;;;;5047880;28;20467;-67
2021/08/10 08:15:17;;;;;;;4.47;2.80;;;18.90;99.90;;;;;;5039056;28;20495;-67
2021/08/10 08:17:44;;;;;;;2.70;2.50;;;19.00;99.90;;;;;;5046351;28;20463;-66
2021/08/10 08:20:12;;;;;;;4.73;3.13;;;19.10;99.90;;;;;;5047401;28;20467;-66
2021/08/10 08:22:40;;;;;;;3.83;2.90;;;19.20;99.90;;;;;;5047885;28;20466;-67
2021/08/10 08:25:07;;;;;;;2.90;2.60;;;19.20;99.90;;;;;;5046866;28;20521;-67
2021/08/10 08:27:34;;;;;;;3.57;2.77;;;19.20;99.90;;;;;;5047080;28;20842;-67
2021/08/10 08:30:01;;;;;;;2.50;2.30;;;19.00;99.90;;;;;;5047273;28;20459;-67
2021/08/10 08:32:28;;;;;;;5.33;3.03;;;19.00;99.90;;;;;;5046135;28;20451;-67
2021/08/10 08:34:54;;;;;;;4.50;3.60;;;19.00;99.90;;;;;;5047315;28;20471;-67
2021/08/10 08:37:21;;;;;;;6.13;2.80;;;19.00;99.90;;;;;;5045699;28;20490;-67
2021/08/10 08:39:49;;;;;;;3.33;2.90;;;19.00;99.90;;;;;;5047203;28;20471;-67
2021/08/10 08:42:16;;;;;;;5.50;2.67;;;19.00;99.90;;;;;;5046706;28;20499;-67
2021/08/10 08:44:42;;;;;;;2.60;2.40;;;19.10;99.90;;;;;;5047324;28;20470;-67
2021/08/10 08:47:10;;;;;;;3.27;2.80;;;19.20;99.90;;;;;;5046821;28;20490;-67
2021/08/10 08:49:39;;;;;;;2.40;2.07;;;19.40;99.90;;;;;;5047080;28;20473;-67
2021/08/10 08:52:10;;;;;;;2.97;2.67;;;19.50;99.90;;;;;;5047189;28;20463;-67
2021/08/10 08:54:40;;;;;;;3.80;2.67;;;19.60;99.90;;;;;;5046908;28;20950;-67
2021/08/10 08:57:08;;;;;;;2.83;2.63;;;19.70;99.90;;;;;;5046904;28;20483;-67
2021/08/10 08:59:35;;;;;;;3.00;2.37;;;19.90;99.90;;;;;;5046972;28;20466;-68
2021/08/10 09:02:02;;;;;;;4.40;2.10;;;20.00;99.90;;;;;;5046231;28;20486;-67
2021/08/10 09:04:28;;;;;;;2.80;2.27;;;20.10;99.90;;;;;;5047069;28;20459;-67
2021/08/10 09:06:56;;;;;;;3.10;2.20;;;20.10;99.90;;;;;;5047027;28;21320;-67
2021/08/10 09:09:24;;;;;;;3.67;2.30;;;20.20;99.90;;;;;;5046645;28;20490;-67
2021/08/10 09:11:52;;;;;;;3.03;2.30;;;20.20;99.90;;;;;;5047148;28;20459;-67
2021/08/10 09:14:21;;;;;;;2.70;2.17;;;20.10;99.90;;;;;;5046605;28;20467;-66
2021/08/10 09:17:08;;;;;;;3.27;2.20;;;20.20;99.90;;;;;;5046649;28;20483;-67
2021/08/10 09:19:43;;;;;;;2.33;2.03;;;20.40;99.90;;;;;;5046068;28;20466;-67
2021/08/10 09:22:19;;;;;;;3.67;2.20;;;20.40;99.90;;;;;;5046735;28;20490;-67
2021/08/10 09:24:48;;;;;;;2.10;1.90;;;20.40;99.90;;;;;;5046683;28;20454;-67
2021/08/10 09:27:30;;;;;;;4.20;2.87;;;20.50;99.90;;;;;;5046431;28;20487;-67
2021/08/10 09:29:59;;;;;;;2.90;2.23;;;20.60;99.90;;;;;;5046863;28;20459;-67
2021/08/10 09:32:26;;;;;;;5.90;2.37;;;20.60;99.90;;;;;;5048602;28;20455;-67
2021/08/10 09:35:11;;;;;;;4.10;1.90;;;20.70;99.90;;;;;;5050808;28;20471;-67
2021/08/10 09:37:38;;;;;;;2.37;2.17;;;20.80;99.90;;;;;;5049858;28;20969;-67
2021/08/10 09:40:27;;;;;;;3.03;2.40;;;20.80;99.90;;;;;;5050671;28;20845;-67
2021/08/10 09:42:54;;;;;;;2.87;2.37;;;20.90;99.90;;;;;;5045771;28;20498;-67
2021/08/10 09:45:22;;;;;;;2.43;2.17;;;20.90;99.90;;;;;;5050426;28;20479;-67
2021/08/10 09:47:49;;;;;;;2.50;2.30;;;20.90;99.90;;;;;;5050071;28;20467;-66
2021/08/10 09:50:17;;;;;;;4.00;2.43;;;20.90;99.90;;;;;;5050116;28;20463;-67
2021/08/10 09:52:45;;;;;;;3.87;2.60;;;20.80;99.90;;;;;;5050402;28;20482;-67
2021/08/10 09:55:13;;;;;;;3.33;2.47;;;20.80;99.90;;;;;;5049959;28;21069;-67
2021/08/10 09:57:41;;;;;;;2.23;1.80;;;20.80;99.90;;;;;;5050123;28;20471;-67
2021/08/10 10:00:09;;;;;;;3.10;2.70;;;20.90;99.90;;;;;;5050175;28;20474;-67
2021/08/10 10:02:37;;;;;;;3.27;2.20;;;21.00;99.90;;;;;;5050177;28;20483;-67
2021/08/10 10:05:04;;;;;;;2.50;2.17;;;21.00;99.90;;;;;;5050190;28;20838;-67
2021/08/10 10:07:31;;;;;;;3.00;2.57;;;21.10;99.90;;;;;;5049789;28;20811;-67
2021/08/10 10:09:59;;;;;;;2.93;2.00;;;21.10;99.90;;;;;;5049976;28;20831;-67
2021/08/10 10:12:26;;;;;;;2.30;2.00;;;21.10;99.90;;;;;;5050284;28;20466;-67
2021/08/10 10:14:58;;;;;;;3.00;2.37;;;21.10;99.90;;;;;;5049414;28;20459;-67
2021/08/10 10:17:25;;;;;;;2.73;2.27;;;21.10;99.90;;;;;;5049666;28;20966;-67
2021/08/10 10:19:55;;;;;;;2.33;1.90;;;21.20;99.90;;;;;;5049768;28;20478;-67
2021/08/10 10:22:24;;;;;;;2.70;2.20;;;21.20;99.90;;;;;;5049627;28;20479;-67
2021/08/10 10:24:53;;;;;;;2.73;2.10;;;21.20;99.90;;;;;;5049882;28;20463;-67
2021/08/10 10:27:20;;;;;;;2.60;1.93;;;21.30;99.90;;;;;;5049386;28;20466;-67
2021/08/10 10:29:48;;;;;;;2.53;2.33;;;21.40;99.90;;;;;;5049733;28;20491;-67
2021/08/10 10:32:18;;;;;;;3.17;2.40;;;21.50;99.90;;;;;;5049328;28;20482;-67
2021/08/10 10:34:46;;;;;;;2.63;2.43;;;21.60;99.90;;;;;;5050010;28;20571;-67
2021/08/10 10:37:20;;;;;;;3.63;2.40;;;21.60;99.90;;;;;;5048602;28;20566;-67
2021/08/10 10:39:51;;;;;;;3.43;2.50;;;21.70;99.90;;;;;;5049511;28;20470;-67
2021/08/10 10:42:19;;;;;;;4.33;2.50;;;21.80;99.90;;;;;;5047716;28;20833;-67
2021/08/10 10:44:51;;;;;;;5.23;2.50;;;21.90;99.90;;;;;;5047473;28;20463;-67
2021/08/10 10:47:37;;;;;;;2.70;2.50;;;22.00;99.90;;;;;;5049118;28;20495;-67
2021/08/10 10:50:19;;;;;;;3.10;2.20;;;22.10;99.90;;;;;;5048864;28;20877;-67
2021/08/10 10:53:09;;;;;;;2.63;2.40;;;22.30;99.90;;;;;;5049219;28;20458;-67
2021/08/10 10:55:46;;;;;;;3.30;2.60;;;22.30;99.90;;;;;;5048982;28;20987;-67
2021/08/10 10:58:31;;;;;;;5.10;2.97;;;22.40;99.90;;;;;;5048579;28;20481;-67
2021/08/10 11:01:15;;;;;;;3.90;2.40;;;22.40;99.90;;;;;;5048746;28;20460;-67
2021/08/10 11:04:22;;;;;;;3.10;2.80;;;22.40;99.90;;;;;;5049054;28;20568;-67
2021/08/10 11:06:58;;;;;;;2.80;2.10;;;22.50;99.90;;;;;;5049006;28;21093;-67
2021/08/10 11:10:00;;;;;;;2.47;2.10;;;22.50;99.90;;;;;;5049211;28;20482;-67
2021/08/10 11:15:44;;;;;;;4.73;2.60;;;22.70;99.90;;;;;;5048088;28;20481;-67
2021/08/10 11:18:25;;;;;;;2.97;2.67;;;22.70;99.90;;;;;;5048396;28;20471;-67
2021/08/10 11:20:54;;;;;;;3.43;2.70;;;22.80;99.90;;;;;;5048568;28;20471;-67
2021/08/10 11:23:32;;;;;;;3.33;2.20;;;22.80;99.90;;;;;;5048741;28;20487;-67
2021/08/10 11:26:32;;;;;;;2.73;2.50;;;22.80;99.90;;;;;;5048241;28;20483;-67
2021/08/10 11:29:00;;;;;;;3.03;2.30;;;22.70;99.90;;;;;;5047974;28;20807;-68
2021/08/10 11:31:43;;;;;;;2.73;2.50;;;22.80;99.90;;;;;;5048507;28;20460;-67
2021/08/10 11:34:32;;;;;;;3.20;2.37;;;22.80;99.90;;;;;;5048712;28;20463;-67
2021/08/10 11:37:19;;;;;;;3.40;2.90;;;22.90;99.90;;;;;;5048050;28;20566;-67
2021/08/10 11:40:01;;;;;;;4.23;2.40;;;22.90;99.90;;;;;;5046694;28;20469;-67
2021/08/10 11:42:28;;;;;;;3.10;2.53;;;23.00;99.90;;;;;;5034788;28;20491;-67
2021/08/10 11:44:57;;;;;;;2.60;2.40;;;22.90;99.90;;;;;;5043455;28;20471;-67
2021/08/10 11:47:24;;;;;;;4.03;2.47;;;22.90;99.90;;;;;;5048185;28;20471;-68
2021/08/10 11:49:54;;;;;;;3.40;2.60;;;22.90;99.90;;;;;;5048509;28;20459;-68
2021/08/10 11:52:21;;;;;;;2.90;2.20;;;23.10;99.90;;;;;;5048426;28;20513;-67
2021/08/10 11:54:57;;;;;;;2.70;2.50;;;23.20;99.90;;;;;;5048050;28;20836;-67
2021/08/10 11:57:24;;;;;;;2.67;2.40;;;23.50;99.90;;;;;;5048405;28;20905;-67
2021/08/10 12:00:10;;;;;;;4.27;2.13;;;23.60;99.90;;;;;;5048037;28;20584;-67
2021/08/10 12:02:44;;;;;;;5.50;2.50;;;23.70;99.90;;;;;;5048352;28;20508;-68
2021/08/10 12:05:12;;;;;;;4.63;2.63;;;23.80;99.90;;;;;;5047432;28;20558;-67
2021/08/10 12:07:51;;;;;;;2.30;2.10;;;23.80;99.90;;;;;;5047909;28;20466;-67
2021/08/10 12:10:23;;;;;;;2.63;2.40;;;23.90;99.90;;;;;;5048048;28;20463;-67
2021/08/10 12:12:49;;;;;;;2.87;2.30;;;24.10;99.90;;;;;;5047431;28;20463;-67
2021/08/10 12:15:41;;;;;;;2.70;2.20;;;24.20;99.90;;;;;;5048028;28;20479;-67
2021/08/10 12:18:10;;;;;;;2.90;2.70;;;24.30;99.90;;;;;;5046490;28;20498;-67
2021/08/10 12:20:37;;;;;;;4.27;2.40;;;24.20;99.90;;;;;;5047449;28;20463;-67
2021/08/10 12:23:05;;;;;;;4.73;2.43;;;24.10;99.90;;;;;;5047135;28;20585;-67
2021/08/10 12:25:32;;;;;;;2.80;2.37;;;24.00;99.90;;;;;;5047915;28;21048;-67
2021/08/10 12:28:07;;;;;;;4.67;2.43;;;23.80;99.90;;;;;;5046523;28;20951;-67
2021/08/10 12:30:36;;;;;;;3.60;2.47;;;23.60;99.90;;;;;;5047833;28;20467;-67
2021/08/10 12:33:16;;;;;;;2.80;2.60;;;23.50;99.90;;;;;;5047614;28;20462;-67
2021/08/10 12:36:00;;;;;;;5.83;2.63;;;23.30;99.90;;;;;;5047051;28;20475;-67
2021/08/10 12:38:27;;;;;;;2.77;2.53;;;23.30;99.90;;;;;;5047585;28;20479;-68
2021/08/10 12:40:55;;;;;;;3.20;2.40;;;23.30;99.90;;;;;;5042220;28;20462;-68
2021/08/10 12:43:27;;;;;;;2.77;2.50;;;23.30;99.90;;;;;;5047209;28;20495;-67
2021/08/10 12:45:55;;;;;;;2.77;2.57;;;23.20;99.90;;;;;;5050997;28;20479;-68
2021/08/10 12:48:29;;;;;;;2.60;2.40;;;23.30;99.90;;;;;;5045710;28;20470;-68
2021/08/10 12:50:58;;;;;;;3.27;2.50;;;23.20;99.90;;;;;;5045771;28;20464;-67
2021/08/10 12:53:34;;;;;;;2.57;2.37;;;23.10;99.90;;;;;;5045821;28;20454;-68
2021/08/10 12:56:02;;;;;;;4.40;2.60;;;23.10;99.90;;;;;;5046124;28;20490;-68
2021/08/10 12:58:30;;;;;;;4.10;2.30;;;23.10;99.90;;;;;;5046187;28;20488;-67
2021/08/10 13:01:02;;;;;;;3.90;2.70;;;23.10;99.90;;;;;;5047466;28;20967;-68
2021/08/10 13:03:30;;;;;;;3.20;2.90;;;23.00;99.90;;;;;;5046686;28;20494;-67